createdAt,value
2022-11-05T00:01:00.691Z,97147.50
2022-11-05T00:03:46.796Z,97161.44
2022-11-05T00:06:32.560Z,97161.31
2022-11-05T00:09:18.612Z,97154.59
2022-11-05T00:12:04.541Z,97160.66
2022-11-05T00:14:50.763Z,97169.19
2022-11-05T00:17:17.872Z,97160.38
2022-11-05T00:19:45.322Z,97173.19
2022-11-05T00:22:31.003Z,97176.88
2022-11-05T00:25:16.998Z,97193.25
2022-11-05T00:27:50.580Z,97185.81
2022-11-05T00:30:26.690Z,97198.75
2022-11-05T00:32:54.252Z,97200.88
2022-11-05T00:35:22.749Z,97197.03
2022-11-05T00:37:50.694Z,97195.53
2022-11-05T00:40:18.571Z,97205.00
2022-11-05T00:43:04.744Z,97184.75
2022-11-05T00:45:32.316Z,97194.63
2022-11-05T00:48:18.150Z,97175.59
2022-11-05T00:50:46.097Z,97188.94
2022-11-05T00:53:13.894Z,97195.66
2022-11-05T00:55:45.189Z,97195.09
2022-11-05T00:58:17.372Z,97196.59
2022-11-05T01:00:54.929Z,97196.28
2022-11-05T01:03:28.778Z,97200.69
2022-11-05T01:05:59.780Z,97204.59
2022-11-05T01:08:28.295Z,97194.22
2022-11-05T01:10:58.542Z,97200.00
2022-11-05T01:13:30.676Z,97191.56
2022-11-05T01:16:04.696Z,97202.16
2022-11-05T01:18:31.944Z,97206.56
2022-11-05T01:20:59.421Z,97194.88
2022-11-05T01:23:26.621Z,97190.47
2022-11-05T01:25:54.057Z,97189.88
2022-11-05T01:28:21.227Z,97205.22
2022-11-05T01:30:56.133Z,97193.28
2022-11-05T01:33:23.879Z,97218.41
2022-11-05T01:35:51.875Z,97219.50
2022-11-05T01:38:19.481Z,97229.69
2022-11-05T01:40:47.190Z,97234.91
2022-11-05T01:43:22.187Z,97241.22
2022-11-05T01:45:58.643Z,97240.91
2022-11-05T01:48:36.275Z,97245.88
2022-11-05T01:51:17.845Z,97240.06
2022-11-05T01:54:00.151Z,97229.69
2022-11-05T01:56:34.369Z,97250.38
2022-11-05T01:59:11.349Z,97253.13
2022-11-05T02:01:39.059Z,97246.94
2022-11-05T02:04:15.059Z,97262.16
2022-11-05T02:06:46.445Z,97271.75
2022-11-05T02:09:25.323Z,97264.31
2022-11-05T02:11:52.838Z,97280.47
2022-11-05T02:14:20.443Z,97276.06
2022-11-05T02:17:19.107Z,97279.84
2022-11-05T02:20:18.048Z,97292.63
2022-11-05T02:23:10.491Z,97295.25
2022-11-05T02:26:03.529Z,97287.31
2022-11-05T02:29:04.127Z,97289.81
2022-11-05T02:31:56.585Z,97287.06
2022-11-05T02:34:32.868Z,97291.31
2022-11-05T02:37:18.653Z,97301.28
2022-11-05T02:39:59.522Z,97303.69
2022-11-05T02:42:51.290Z,97304.50
2022-11-05T02:45:52.626Z,97319.47
2022-11-05T02:48:55.733Z,97314.34
2022-11-05T02:51:27.529Z,97314.00
2022-11-05T02:54:09.123Z,97322.50
2022-11-05T02:56:43.949Z,97320.59
2022-11-05T02:59:11.240Z,97322.28
2022-11-05T03:01:42.261Z,97321.34
2022-11-05T03:04:16.520Z,97322.84
2022-11-05T03:07:27.049Z,97332.38
2022-11-05T03:10:26.985Z,97349.31
2022-11-05T03:13:06.038Z,97351.94
2022-11-05T03:16:00.423Z,97339.84
2022-11-05T03:18:46.143Z,97352.88
2022-11-05T03:21:25.509Z,97364.66
2022-11-05T03:24:06.283Z,97346.41
2022-11-05T03:26:52.533Z,97348.63
2022-11-05T03:29:28.413Z,97341.13
2022-11-05T03:31:59.265Z,97358.44
2022-11-05T03:34:39.957Z,97348.97
2022-11-05T03:37:10.077Z,97362.16
2022-11-05T03:39:46.158Z,97363.53
2022-11-05T03:42:18.565Z,97371.63
2022-11-05T03:44:52.805Z,97369.28
2022-11-05T03:47:44.232Z,97373.53
2022-11-05T03:50:35.863Z,97366.53
2022-11-05T03:53:15.992Z,97360.84
2022-11-05T03:56:34.507Z,97372.41
2022-11-05T03:59:04.974Z,97384.72
2022-11-05T04:01:33.062Z,97384.97
2022-11-05T04:04:00.389Z,97390.41
2022-11-05T04:06:46.306Z,97396.38
2022-11-05T04:09:31.892Z,97407.16
2022-11-05T04:12:17.657Z,97398.16
2022-11-05T04:14:45.005Z,97396.72
2022-11-05T04:17:12.799Z,97389.84
2022-11-05T04:20:01.784Z,97400.63
2022-11-05T04:22:51.565Z,97398.00
2022-11-05T04:25:20.880Z,97397.44
2022-11-05T04:27:49.147Z,97404.31
2022-11-05T04:30:18.983Z,97400.03
2022-11-05T04:33:03.414Z,97409.03
2022-11-05T04:35:38.115Z,97408.19
2022-11-05T04:38:08.961Z,97400.03
2022-11-05T04:40:36.617Z,97405.59
2022-11-05T04:43:04.937Z,97414.84
2022-11-05T04:45:34.940Z,97417.47
2022-11-05T04:48:03.908Z,97415.31
2022-11-05T04:50:32.541Z,97408.94
2022-11-05T04:53:01.006Z,97418.09
2022-11-05T04:55:28.631Z,97410.38
2022-11-05T04:57:56.726Z,97420.34
2022-11-05T05:00:24.933Z,97425.19
2022-11-05T05:02:52.447Z,97422.47
2022-11-05T05:05:19.746Z,97425.19
2022-11-05T05:07:47.252Z,97425.03
2022-11-05T05:10:14.426Z,97426.81
2022-11-05T05:12:42.040Z,97439.53
2022-11-05T05:15:09.386Z,97427.78
2022-11-05T05:17:36.887Z,97431.59
2022-11-05T05:20:22.721Z,97440.09
2022-11-05T05:22:56.606Z,97442.34
2022-11-05T05:25:24.057Z,97438.78
2022-11-05T05:27:51.712Z,97449.13
2022-11-05T05:30:19.084Z,97450.44
2022-11-05T05:32:46.548Z,97437.88
2022-11-05T05:35:13.759Z,97448.09
2022-11-05T05:37:41.481Z,97446.66
2022-11-05T05:40:10.005Z,97460.66
2022-11-05T05:42:42.727Z,97459.72
2022-11-05T05:45:11.628Z,97467.53
2022-11-05T05:47:39.091Z,97469.91
2022-11-05T05:50:06.660Z,97473.94
2022-11-05T05:52:34.162Z,97473.72
2022-11-05T05:55:01.467Z,97481.53
2022-11-05T05:57:28.987Z,97487.59
2022-11-05T05:59:56.198Z,97482.69
2022-11-05T06:02:23.818Z,97488.66
2022-11-05T06:04:51.159Z,97498.97
2022-11-05T06:07:18.695Z,97492.94
2022-11-05T06:09:45.914Z,97497.41
2022-11-05T06:12:13.382Z,97495.03
2022-11-05T06:14:40.620Z,97493.00
2022-11-05T06:17:08.528Z,97507.50
2022-11-05T06:19:35.763Z,97513.75
2022-11-05T06:22:03.281Z,97529.19
2022-11-05T06:24:30.560Z,97530.38
2022-11-05T06:26:58.060Z,97542.25
2022-11-05T06:29:25.337Z,97537.72
2022-11-05T06:31:53.046Z,97537.84
2022-11-05T06:34:20.264Z,97554.09
2022-11-05T06:36:47.759Z,97552.88
2022-11-05T06:39:14.980Z,97556.44
2022-11-05T06:42:11.906Z,97558.03
2022-11-05T06:44:30.875Z,97571.88
2022-11-05T06:46:58.500Z,97577.09
2022-11-05T06:49:25.955Z,97585.06
2022-11-05T06:51:53.701Z,97587.53
2022-11-05T06:54:21.035Z,97590.88
2022-11-05T06:56:48.734Z,97596.78
2022-11-05T06:59:16.054Z,97609.38
2022-11-05T07:01:43.644Z,97611.63
2022-11-05T07:04:12.853Z,97610.59
2022-11-05T07:06:40.283Z,97609.84
2022-11-05T07:09:07.501Z,97614.16
2022-11-05T07:11:34.958Z,97616.75
2022-11-05T07:14:02.201Z,97625.19
2022-11-05T07:16:29.854Z,97625.31
2022-11-05T07:18:57.085Z,97626.84
2022-11-05T07:21:24.680Z,97627.44
2022-11-05T07:23:51.934Z,97624.09
2022-11-05T07:26:19.531Z,97625.56
2022-11-05T07:28:46.755Z,97624.81
2022-11-05T07:31:14.288Z,97626.72
2022-11-05T07:33:41.509Z,97632.44
2022-11-05T07:36:09.813Z,97640.97
2022-11-05T07:38:37.384Z,97640.03
2022-11-05T07:41:05.343Z,97648.69
2022-11-05T07:43:32.669Z,97649.19
2022-11-05T07:46:00.193Z,97650.34
2022-11-05T07:48:45.920Z,97654.03
2022-11-05T07:51:14.652Z,97658.31
2022-11-05T07:53:45.306Z,97657.28
2022-11-05T07:56:13.256Z,97650.72
2022-11-05T07:58:40.452Z,97663.28
2022-11-05T08:01:08.186Z,97659.97
2022-11-05T08:03:35.653Z,97659.75
2022-11-05T08:06:03.584Z,97656.63
2022-11-05T08:08:30.845Z,97658.69
2022-11-05T08:11:07.562Z,97653.91
2022-11-05T08:13:35.946Z,97650.22
2022-11-05T08:16:04.697Z,97663.06
2022-11-05T08:18:33.190Z,97659.06
2022-11-05T08:21:05.916Z,97660.09
2022-11-05T08:23:33.601Z,97663.44
2022-11-05T08:26:04.197Z,97671.38
2022-11-05T08:28:31.819Z,97684.78
2022-11-05T08:30:59.400Z,97686.78
2022-11-05T08:33:29.502Z,97686.88
2022-11-05T08:36:02.480Z,97689.84
2022-11-05T08:38:29.943Z,97683.69
2022-11-05T08:40:58.836Z,97696.06
2022-11-05T08:43:26.165Z,97689.38
2022-11-05T08:45:55.112Z,97696.66
2022-11-05T08:48:22.609Z,97696.69
2022-11-05T08:50:50.784Z,97705.59
2022-11-05T08:53:18.653Z,97702.97
2022-11-05T08:55:47.911Z,97714.88
2022-11-05T08:58:17.183Z,97712.50
2022-11-05T09:00:48.527Z,97707.22
2022-11-05T09:03:17.190Z,97709.75
2022-11-05T09:05:45.506Z,97706.78
2022-11-05T09:08:17.251Z,97701.31
2022-11-05T09:10:47.253Z,97702.13
2022-11-05T09:13:18.712Z,97704.41
2022-11-05T09:15:49.456Z,97705.84
2022-11-05T09:18:18.919Z,97708.50
2022-11-05T09:20:47.260Z,97710.72
2022-11-05T09:23:15.795Z,97713.84
2022-11-05T09:25:44.864Z,97719.78
2022-11-05T09:28:22.199Z,97713.00
2022-11-05T09:30:52.636Z,97724.16
2022-11-05T09:33:24.078Z,97718.44
2022-11-05T09:35:53.086Z,97732.72
2022-11-05T09:38:20.830Z,97722.84
2022-11-05T09:41:15.605Z,97734.03
2022-11-05T09:44:15.609Z,97737.97
2022-11-05T09:46:54.788Z,97748.19
2022-11-05T09:49:47.040Z,97734.53
2022-11-05T09:52:29.556Z,97742.13
2022-11-05T09:54:58.101Z,97742.84
2022-11-05T09:57:56.483Z,97746.53
2022-11-05T10:00:24.167Z,97751.50
2022-11-05T10:02:55.797Z,97748.88
2022-11-05T10:05:27.235Z,97749.72
2022-11-05T10:08:00.352Z,97749.94
2022-11-05T10:10:43.425Z,97748.50
2022-11-05T10:13:42.064Z,97751.13
2022-11-05T10:16:40.048Z,97754.31
2022-11-05T10:19:27.317Z,97765.41
2022-11-05T10:22:12.480Z,97753.75
2022-11-05T10:24:50.916Z,97761.56
2022-11-05T10:27:32.552Z,97772.72
2022-11-05T10:30:00.490Z,97773.19
2022-11-05T10:32:39.734Z,97778.78
2022-11-05T10:35:14.583Z,97773.06
2022-11-05T10:37:41.973Z,97766.44
2022-11-05T10:41:18.873Z,97765.59
2022-11-05T10:44:05.298Z,97764.75
2022-11-05T10:46:41.050Z,97762.03
2022-11-05T10:49:17.417Z,97763.81
2022-11-05T10:51:47.138Z,97770.13
2022-11-05T10:54:21.836Z,97767.53
2022-11-05T10:56:49.517Z,97764.69
2022-11-05T10:59:30.225Z,97774.78
2022-11-05T11:02:35.593Z,97781.06
2022-11-05T11:05:03.516Z,97786.66
2022-11-05T11:07:30.963Z,97786.19
2022-11-05T11:09:58.728Z,97790.72
2022-11-05T11:12:40.827Z,97785.47
2022-11-05T11:15:29.588Z,97782.88
2022-11-05T11:17:57.040Z,97793.19
2022-11-05T11:20:33.892Z,97788.22
2022-11-05T11:23:04.745Z,97801.63
2022-11-05T11:26:01.459Z,97799.63
2022-11-05T11:28:52.584Z,97794.97
2022-11-05T11:31:30.151Z,97797.09
2022-11-05T11:34:07.075Z,97800.44
2022-11-05T11:36:48.028Z,97799.50
2022-11-05T11:39:23.842Z,97802.81
2022-11-05T11:41:56.202Z,97800.91
2022-11-05T11:44:33.196Z,97809.47
2022-11-05T11:47:10.791Z,97815.19
2022-11-05T11:49:59.409Z,97805.69
2022-11-05T11:52:36.991Z,97806.84
2022-11-05T11:55:13.369Z,97801.91
2022-11-05T11:58:08.280Z,97808.94
2022-11-05T12:00:47.756Z,97804.97
2022-11-05T12:03:40.250Z,97808.94
2022-11-05T12:06:26.538Z,97806.91
2022-11-05T12:09:44.852Z,97815.22
2022-11-05T12:12:21.304Z,97820.25
2022-11-05T12:15:16.785Z,97820.28
2022-11-05T12:18:02.754Z,97823.16
2022-11-05T12:21:01.916Z,97823.88
2022-11-05T12:23:50.004Z,97828.25
2022-11-05T12:26:40.887Z,97819.03
2022-11-05T12:29:32.858Z,97822.59
2022-11-05T12:32:41.079Z,97840.34
2022-11-05T12:35:16.556Z,97830.56
2022-11-05T12:38:13.817Z,97840.38
2022-11-05T12:40:50.348Z,97842.16
2022-11-05T12:44:14.334Z,97850.88
2022-11-05T12:47:24.082Z,97849.59
2022-11-05T12:50:51.744Z,97853.31
2022-11-05T12:53:46.777Z,97843.53
2022-11-05T12:56:26.913Z,97849.63
2022-11-05T12:59:24.619Z,97852.78
2022-11-05T13:02:16.661Z,97854.16
2022-11-05T13:05:01.984Z,97865.19
2022-11-05T13:07:37.836Z,97868.50
2022-11-05T13:10:17.835Z,97875.97
2022-11-05T13:12:54.934Z,97881.69
2022-11-05T13:15:30.694Z,97880.75
2022-11-05T13:18:11.597Z,97892.28
2022-11-05T13:20:46.421Z,97895.63
2022-11-05T13:23:35.488Z,97905.13
2022-11-05T13:26:22.820Z,97896.34
2022-11-05T13:29:06.782Z,97896.50
2022-11-05T13:31:43.573Z,97910.34
2022-11-05T13:34:13.394Z,97914.72
2022-11-05T13:37:11.561Z,97905.84
2022-11-05T13:40:08.383Z,97905.31
2022-11-05T13:43:12.780Z,97913.38
2022-11-05T13:46:14.196Z,97904.44
2022-11-05T13:49:27.935Z,97920.47
2022-11-05T13:52:13.615Z,97914.53
2022-11-05T13:55:25.097Z,97914.00
2022-11-05T13:58:25.882Z,97917.44
2022-11-05T14:01:40.023Z,97925.13
2022-11-05T14:04:15.652Z,97926.78
2022-11-05T14:06:43.331Z,97922.06
2022-11-05T14:09:18.830Z,97932.53
2022-11-05T14:11:58.167Z,97942.81
2022-11-05T14:14:35.111Z,97950.22
2022-11-05T14:17:08.591Z,97966.22
2022-11-05T14:19:49.571Z,97967.41
2022-11-05T14:22:39.025Z,97970.94
2022-11-05T14:25:26.600Z,97975.03
2022-11-05T14:27:54.524Z,97974.13
2022-11-05T14:30:42.048Z,97982.44
2022-11-05T14:33:31.180Z,97985.50
2022-11-05T14:36:30.392Z,97992.19
2022-11-05T14:39:32.557Z,97994.91
2022-11-05T14:42:14.752Z,97989.78
2022-11-05T14:45:01.677Z,97996.22
2022-11-05T14:47:42.221Z,98007.19
2022-11-05T14:50:19.716Z,98001.41
2022-11-05T14:52:57.189Z,98002.00
2022-11-05T14:55:35.034Z,98007.47
2022-11-05T14:58:24.903Z,98016.63
2022-11-05T15:00:53.706Z,98019.72
2022-11-05T15:03:46.471Z,98020.78
2022-11-05T15:06:31.265Z,98036.09
2022-11-05T15:09:13.525Z,98031.47
2022-11-05T15:11:56.522Z,98037.53
2022-11-05T15:14:34.956Z,98032.72
2022-11-05T15:17:40.286Z,98041.63
2022-11-05T15:20:15.473Z,98046.72
2022-11-05T15:22:49.130Z,98048.13
2022-11-05T15:25:53.261Z,98047.16
2022-11-05T15:28:41.078Z,98050.66
2022-11-05T15:31:14.331Z,98053.16
2022-11-05T15:33:44.665Z,98047.22
2022-11-05T15:36:28.233Z,98048.59
2022-11-05T15:39:23.321Z,98062.91
2022-11-05T15:41:45.265Z,98064.13
2022-11-05T15:44:29.887Z,98069.38
2022-11-05T15:47:12.332Z,98077.69
2022-11-05T15:50:02.000Z,98079.16
2022-11-05T15:52:37.210Z,98071.16
2022-11-05T15:55:24.501Z,98080.66
2022-11-05T15:57:58.695Z,98086.28
2022-11-05T16:00:31.843Z,98082.31
2022-11-05T16:03:06.356Z,98083.56
2022-11-05T16:05:42.926Z,98075.31
2022-11-05T16:08:20.820Z,98069.25
2022-11-05T16:10:53.809Z,98078.16
2022-11-05T16:13:22.120Z,98075.72
2022-11-05T16:16:00.009Z,98085.16
2022-11-05T16:18:39.952Z,98080.97
2022-11-05T16:21:10.477Z,98090.47
2022-11-05T16:23:49.977Z,98089.97
2022-11-05T16:29:41.205Z,98102.63
2022-11-05T16:32:30.595Z,98101.56
2022-11-05T16:35:07.512Z,98102.75
2022-11-05T16:37:46.424Z,98109.13
2022-11-05T16:40:25.832Z,98112.59
2022-11-05T16:42:54.846Z,98116.97
2022-11-05T16:45:25.393Z,98125.19
2022-11-05T16:47:53.083Z,98127.09
2022-11-05T16:50:31.193Z,98135.16
2022-11-05T16:52:58.729Z,98131.28
2022-11-05T16:55:26.244Z,98135.91
2022-11-05T16:57:55.867Z,98140.25
2022-11-05T17:00:25.086Z,98143.59
2022-11-05T17:02:53.216Z,98143.72
2022-11-05T17:05:30.959Z,98148.09
2022-11-05T17:07:58.715Z,98145.19
2022-11-05T17:10:26.713Z,98144.97
2022-11-05T17:12:54.688Z,98147.16
2022-11-05T17:15:36.820Z,98148.63
2022-11-05T17:18:05.914Z,98146.44
2022-11-05T17:20:41.707Z,98141.84
2022-11-05T17:23:15.597Z,98135.88
2022-11-05T17:25:48.306Z,98138.91
2022-11-05T17:28:17.223Z,98141.31
2022-11-05T17:30:52.161Z,98144.03
2022-11-05T17:33:22.852Z,98142.56
2022-11-05T17:35:51.458Z,98145.19
2022-11-05T17:38:20.324Z,98150.19
2022-11-05T17:40:48.003Z,98146.94
2022-11-05T17:43:16.161Z,98151.25
2022-11-05T17:45:47.640Z,98160.94
2022-11-05T17:48:16.120Z,98156.16
2022-11-05T17:50:47.246Z,98157.94
2022-11-05T17:53:18.316Z,98165.16
2022-11-05T17:55:47.450Z,98169.53
2022-11-05T17:58:15.694Z,98165.53
2022-11-05T18:00:44.485Z,98159.59
2022-11-05T18:03:13.081Z,98169.41
2022-11-05T18:05:42.177Z,98177.78
2022-11-05T18:08:10.404Z,98170.44
2022-11-05T18:10:39.832Z,98166.94
2022-11-05T18:13:07.750Z,98168.72
2022-11-05T18:15:36.428Z,98174.75
2022-11-05T18:18:04.099Z,98187.72
2022-11-05T18:20:31.532Z,98195.75
2022-11-05T18:22:59.123Z,98207.88
2022-11-05T18:25:26.473Z,98178.72
2022-11-05T18:27:53.969Z,98176.53
2022-11-05T18:30:21.167Z,98181.53
2022-11-05T18:32:48.678Z,98185.50
2022-11-05T18:35:15.847Z,98189.78
2022-11-05T18:37:43.476Z,98193.25
2022-11-05T18:40:12.051Z,98195.63
2022-11-05T18:42:39.955Z,98200.13
2022-11-05T18:45:09.102Z,98201.09
2022-11-05T18:47:36.853Z,98206.19
2022-11-05T18:50:06.487Z,98211.41
2022-11-05T18:52:34.166Z,98219.38
2022-11-05T18:55:01.743Z,98211.13
2022-11-05T18:57:29.488Z,98207.56
2022-11-05T18:59:56.671Z,98207.97
2022-11-05T19:02:24.297Z,98219.91
2022-11-05T19:05:14.420Z,98216.34
2022-11-05T19:07:40.011Z,98232.13
2022-11-05T19:10:08.189Z,98232.22
2022-11-05T19:12:35.749Z,98233.06
2022-11-05T19:15:03.364Z,98232.53
2022-11-05T19:17:33.344Z,98239.75
2022-11-05T19:20:01.431Z,98235.56
2022-11-05T19:22:29.387Z,98243.91
2022-11-05T19:24:56.590Z,98246.44
2022-11-05T19:27:24.125Z,98243.50
2022-11-05T19:29:51.408Z,98246.53
2022-11-05T19:32:19.113Z,98244.84
2022-11-05T19:34:47.116Z,98249.13
2022-11-05T19:37:14.570Z,98255.84
2022-11-05T19:39:41.938Z,98259.41
2022-11-05T19:42:09.463Z,98264.91
2022-11-05T19:44:36.740Z,98268.56
2022-11-05T19:47:04.330Z,98275.47
2022-11-05T19:49:31.533Z,98276.63
2022-11-05T19:51:58.612Z,98272.63
2022-11-05T19:54:26.221Z,98281.06
2022-11-05T19:56:53.465Z,98280.88
2022-11-05T19:59:20.981Z,98290.47
2022-11-05T20:01:48.365Z,98289.41
2022-11-05T20:04:16.130Z,98296.03
2022-11-05T20:06:43.303Z,98299.03
2022-11-05T20:09:22.471Z,98296.53
2022-11-05T20:11:54.482Z,98305.63
2022-11-05T20:14:24.731Z,98308.88
2022-11-05T20:16:53.071Z,98313.69
2022-11-05T20:19:22.711Z,98313.28
2022-11-05T20:21:50.130Z,98312.88
2022-11-05T20:24:24.755Z,98312.59
2022-11-05T20:26:54.995Z,98305.78
2022-11-05T20:29:26.051Z,98312.03
2022-11-05T20:31:57.112Z,98307.41
2022-11-05T20:34:24.838Z,98314.72
2022-11-05T20:36:52.005Z,98315.97
2022-11-05T20:39:21.226Z,98320.16
2022-11-05T20:41:48.502Z,98330.78
2022-11-05T20:44:16.144Z,98331.53
2022-11-05T20:46:43.398Z,98332.69
2022-11-05T20:49:11.576Z,98342.06
2022-11-05T20:51:38.801Z,98347.31
2022-11-05T20:54:06.363Z,98346.63
2022-11-05T20:56:35.418Z,98341.41
2022-11-05T20:59:03.830Z,98347.22
2022-11-05T21:01:33.804Z,98351.72
2022-11-05T21:04:03.142Z,98349.00
2022-11-05T21:06:30.694Z,98347.66
2022-11-05T21:08:58.463Z,98350.69
2022-11-05T21:11:25.880Z,98345.38
2022-11-05T21:13:53.514Z,98342.56
2022-11-05T21:16:21.091Z,98347.78
2022-11-05T21:18:49.197Z,98336.91
2022-11-05T21:21:21.236Z,98338.56
2022-11-05T21:23:48.804Z,98342.22
2022-11-05T21:26:17.984Z,98340.75
2022-11-05T21:28:45.611Z,98337.94
2022-11-05T21:31:13.021Z,98345.88
2022-11-05T21:33:40.758Z,98349.91
2022-11-05T21:36:12.572Z,98352.22
2022-11-05T21:38:41.538Z,98348.88
2022-11-05T21:41:11.388Z,98346.81
2022-11-05T21:43:41.743Z,98353.03
2022-11-05T21:46:12.301Z,98350.25
2022-11-05T21:48:40.195Z,98351.00
2022-11-05T21:51:25.931Z,98345.13
2022-11-05T21:54:11.856Z,98350.25
2022-11-05T21:56:57.974Z,98346.91
2022-11-05T21:59:44.643Z,98349.94
2022-11-05T22:02:14.711Z,98349.31
2022-11-05T22:04:46.375Z,98351.09
2022-11-05T22:07:17.931Z,98348.28
2022-11-05T22:09:45.749Z,98349.84
2022-11-05T22:12:13.931Z,98352.47
2022-11-05T22:14:41.790Z,98349.78
2022-11-05T22:17:10.272Z,98365.22
2022-11-05T22:19:37.861Z,98360.22
2022-11-05T22:22:07.150Z,98367.50
2022-11-05T22:24:36.030Z,98363.41
2022-11-05T22:27:08.092Z,98367.25
2022-11-05T22:29:36.921Z,98361.88
2022-11-05T22:32:05.284Z,98370.44
2022-11-05T22:34:33.501Z,98363.63
2022-11-05T22:37:19.036Z,98360.19
2022-11-05T22:39:46.506Z,98364.66
2022-11-05T22:42:13.847Z,98370.91
2022-11-05T22:44:41.689Z,98370.06
2022-11-05T22:47:09.140Z,98367.84
2022-11-05T22:49:36.721Z,98367.84
2022-11-05T22:52:04.171Z,98367.06
2022-11-05T22:54:36.396Z,98363.91
2022-11-05T22:57:06.292Z,98365.59
2022-11-05T22:59:34.089Z,98360.38
2022-11-05T23:02:06.558Z,98361.31
2022-11-05T23:04:37.401Z,98365.03
2022-11-05T23:07:27.333Z,98364.09
2022-11-05T23:10:14.805Z,98372.31
2022-11-05T23:12:44.456Z,98372.84
2022-11-05T23:15:31.401Z,98375.66
2022-11-05T23:18:17.151Z,98368.84
2022-11-05T23:21:03.062Z,98369.88
2022-11-05T23:23:48.459Z,98371.53
2022-11-05T23:26:34.500Z,98370.91
2022-11-05T23:29:01.674Z,98374.06
2022-11-05T23:32:01.646Z,98376.22
2022-11-05T23:34:29.463Z,98384.41
2022-11-05T23:37:16.276Z,98386.94
2022-11-05T23:39:43.527Z,98382.94
2022-11-05T23:42:30.506Z,98385.34
2022-11-05T23:45:16.353Z,98383.78
2022-11-05T23:48:03.265Z,98384.72
2022-11-05T23:50:35.567Z,98387.00
2022-11-05T23:53:09.033Z,98383.31
2022-11-05T23:55:36.571Z,98378.81
2022-11-05T23:58:04.129Z,98391.22
